LFKFLIEO

Guest
Details From LFKF - Figari Sud Corse
To LIEO - OLBIA COSTA SMERALDA
Flight Number -
Tags generated
Created
Modified
Stats Distance 41 nm / 76 km
Max Altitude 4,500 ft / 1,372 m
Waypoints 3
Social Downloads 2
Likes 0
Share VATSIM

Download

Looking for another format? Having issues loading an existing format? Contact us
Advertisement - Login to hide

Notes

Basic altitude profile: - Ascent Rate: 2500ft/min - Ascent Speed: 250kts - Cruise Altitude: 35000ft - Cruise Speed: 420kts - Descent Rate: 1500ft/min - Descent Speed: 250kts Options: - Use NATs: yes - Use PACOTS: yes - Use low airways: yes - Use high airways: yes

Route

LFKF MADKA LIEO

ID Type Via Altitude (ft/m) Position (lat/lon) Dist (leg/tot) Name
O LFKF APT - 0 / 0 41.50206 / 9.09696 - / 0 nm Figari Sud Corse
MADKA FIX - 4,500 / 1,372 41.33333 / 9.26833 12 / 12 nm
O LIEO APT - 0 / 0 40.89866 / 9.51763 28 / 41 nm OLBIA COSTA SMERALDA

Altitude Profile

Advertisement - Login to hide

LFKF

Details ICAO LFKF (FSC)
Name Figari Sud Corse
Region France
Timezone Europe/Paris (UTC+1.0)
Stats Elevation 86 ft / 26 m (AMSL)
Location 41.502300° 9.096970°
Runways 1
Magnetic Variation 2.503° E

METAR

LFKF 180200Z AUTO 05003KT CAVOK M01/M02 Q1027

Decode

TAF

TAF LFKF 172130Z 1721/1815 CNL= TAF LFMP 172130Z 1721/1815 CNL

Decode

Departure Runways

ID Width Length Bearing (true/mag) Surface Threshold Overrun Markings Lighting
05 148 ft / 45 m 8,144 ft / 2,482 m 47.43° / 44.93° CONCRETE 0 ft / 0 m 0 ft / 0 m APP CENTERLINE EDGE THRESHOLD
23 148 ft / 45 m 8,144 ft / 2,482 m 227.45° / 224.94° CONCRETE 0 ft / 0 m 0 ft / 0 m PREC-APP CENTERLINE EDGE THRESHOLD

LIEO

Details ICAO LIEO (OLB)
Name OLBIA COSTA SMERALDA
Region Italy
Timezone Europe/Rome (UTC+1.0)
Stats Elevation 37 ft / 11 m (AMSL)
Location 40.898700° 9.517660°
Runways 1
Magnetic Variation 2.566° E

METAR

LIEO 180150Z 21002KT CAVOK 00/M00 Q1027

Decode

TAF

TAF LIEO 172300Z 1800/1824 VRB04KT 9999 FEW020 TEMPO 1802/1806 4000 BR BECMG 1810/1812 06010KT BECMG 1817/1819 VRB05KT

Decode

Destination Runways

ID Width Length Bearing (true/mag) Surface Threshold Overrun Markings Lighting
05 148 ft / 45 m 8,029 ft / 2,447 m 55.29° / 52.72° ASPHALT 771 ft / 235 m 0 ft / 0 m PREC-APP CENTERLINE EDGE THRESHOLD MALSF
23 148 ft / 45 m 8,029 ft / 2,447 m 235.31° / 232.74° ASPHALT 505 ft / 154 m 0 ft / 0 m PREC-APP CENTERLINE EDGE THRESHOLD MALSF

Approach Navaids

Runway Type Ident Frequency Range Bearing (true/mag) Slope Elevation
05 DME ISM 109.90 MHz 18 nm / 33 km - - 36 ft / 11 m (AMSL)
05 LOC-ILS ISM 109.90 MHz 18 nm / 33 km 55.30° / 52.73 ° - 37 ft / 11 m (AMSL)
05 GS ISM 109.90 MHz 10 nm / 19 km 55.30° / 52.73 ° 3.50° 37 ft / 11 m (AMSL)
05 MM MM - - 55.30° / 52.74 ° - 37 ft / 11 m (AMSL)
23 DME IOL 111.30 MHz 25 nm / 46 km - - 36 ft / 11 m (AMSL)
23 LOC-ILS IOL 111.30 MHz 20 nm / 37 km 235.30° / 232.73 ° - 37 ft / 11 m (AMSL)
23 GS IOL 111.30 MHz 10 nm / 19 km 235.30° / 232.73 ° 3.00° 37 ft / 11 m (AMSL)

Popular Alternatives